Time;durP1;ratioP1;P1;durP2;ratioP2;P2;SDS_P1;SDS_P2;PMS_P1;PMS_P2;Temp;Humidity;BMP_temperature;BMP_pressure;BME280_temperature;BME280_humidity;BME280_pressure;Samples;Min_cycle;Max_cycle;Signal;HPM_P1;HPM_P2
2022/04/27 00:00:20;;;;;;;45.53;32.53;;;12.30;64.80;;;;;;4978581;28;20059;-43
2022/04/27 00:02:49;;;;;;;50.40;33.22;;;12.30;64.80;;;;;;4975816;28;20061;-46
2022/04/27 00:05:16;;;;;;;45.35;32.00;;;12.30;64.90;;;;;;4980160;28;20058;-43
2022/04/27 00:07:44;;;;;;;49.70;33.78;;;12.30;64.90;;;;;;4978337;28;20084;-43
2022/04/27 00:10:12;;;;;;;51.10;31.10;;;12.30;65.00;;;;;;4980083;28;20061;-43
2022/04/27 00:12:40;;;;;;;49.00;33.10;;;12.30;65.00;;;;;;4977525;28;20506;-43
2022/04/27 00:15:08;;;;;;;50.00;35.13;;;12.30;65.20;;;;;;4979059;28;20069;-43
2022/04/27 00:17:36;;;;;;;51.92;35.30;;;12.30;65.40;;;;;;4980072;28;20050;-45
2022/04/27 00:20:06;;;;;;;50.60;34.20;;;12.30;65.50;;;;;;4979060;28;20050;-43
2022/04/27 00:22:33;;;;;;;48.83;34.05;;;12.30;65.50;;;;;;4978539;28;20065;-43
2022/04/27 00:25:01;;;;;;;45.35;31.77;;;12.30;65.50;;;;;;4977992;28;20055;-44
2022/04/27 00:27:29;;;;;;;51.08;35.15;;;12.30;65.50;;;;;;4980413;28;20057;-43
2022/04/27 00:29:57;;;;;;;62.90;41.35;;;12.30;65.70;;;;;;4977956;28;20074;-43
2022/04/27 00:32:25;;;;;;;57.85;38.05;;;12.30;66.10;;;;;;4975568;28;20046;-46
2022/04/27 00:34:52;;;;;;;54.95;38.55;;;12.30;66.20;;;;;;4977150;28;20535;-44
2022/04/27 00:37:21;;;;;;;49.25;35.25;;;12.20;66.30;;;;;;4981945;28;20537;-43
2022/04/27 00:39:49;;;;;;;54.00;35.85;;;12.20;66.50;;;;;;4982935;28;20557;-44
2022/04/27 00:42:18;;;;;;;53.22;34.53;;;12.20;66.60;;;;;;4980557;28;20050;-43
2022/04/27 00:44:46;;;;;;;48.25;33.22;;;12.20;66.80;;;;;;4984326;28;20066;-43
2022/04/27 00:47:14;;;;;;;51.70;35.72;;;12.20;66.90;;;;;;4982418;28;20054;-43
2022/04/27 00:49:44;;;;;;;51.50;36.58;;;12.20;66.90;;;;;;4981847;28;20054;-46
2022/04/27 00:52:13;;;;;;;54.92;37.10;;;12.20;67.10;;;;;;4980858;28;20057;-44
2022/04/27 00:54:43;;;;;;;60.78;40.42;;;12.20;67.20;;;;;;4983311;28;20069;-43
2022/04/27 00:57:11;;;;;;;56.17;38.33;;;12.20;67.50;;;;;;4983507;28;20054;-43
2022/04/27 00:59:39;;;;;;;57.67;38.50;;;12.10;67.70;;;;;;4983357;28;20046;-43
2022/04/27 01:02:06;;;;;;;50.17;36.00;;;12.10;67.80;;;;;;4980413;28;20054;-43
2022/04/27 01:04:35;;;;;;;52.75;35.85;;;12.10;67.80;;;;;;4982247;28;20054;-42
2022/04/27 01:07:03;;;;;;;47.25;32.92;;;12.00;67.80;;;;;;4983300;28;20391;-45
2022/04/27 01:09:32;;;;;;;46.80;32.38;;;12.10;67.90;;;;;;4981330;28;20061;-43
2022/04/27 01:12:02;;;;;;;50.40;33.28;;;12.10;67.90;;;;;;4980727;28;20426;-42
2022/04/27 01:14:30;;;;;;;48.83;33.08;;;12.10;67.90;;;;;;4983516;28;20062;-42
2022/04/27 01:16:58;;;;;;;42.05;30.33;;;12.10;67.80;;;;;;4981645;28;20066;-48
2022/04/27 01:19:26;;;;;;;46.17;31.50;;;12.10;67.70;;;;;;4982397;28;20414;-43
2022/04/27 01:21:55;;;;;;;35.50;26.40;;;12.00;67.40;;;;;;4979622;28;20054;-42
2022/04/27 01:24:25;;;;;;;38.28;27.83;;;12.00;67.20;;;;;;4984315;28;20069;-42
2022/04/27 01:26:53;;;;;;;35.63;25.40;;;12.00;67.10;;;;;;4980880;28;20054;-43
2022/04/27 01:29:22;;;;;;;36.90;26.85;;;12.00;67.00;;;;;;4980904;28;20050;-43
2022/04/27 01:31:51;;;;;;;41.03;25.77;;;12.00;66.80;;;;;;4979649;28;20054;-43
2022/04/27 01:34:19;;;;;;;34.35;24.63;;;12.00;66.70;;;;;;4982064;28;20058;-43
2022/04/27 01:36:46;;;;;;;37.00;25.65;;;12.00;66.40;;;;;;4981405;28;20053;-44
2022/04/27 01:39:15;;;;;;;37.58;26.33;;;11.90;65.90;;;;;;4975110;28;20062;-43
2022/04/27 01:41:43;;;;;;;37.55;25.27;;;11.90;65.70;;;;;;4980655;28;21533;-43
2022/04/27 01:44:10;;;;;;;37.72;24.20;;;11.90;65.50;;;;;;4981389;28;20058;-43
2022/04/27 01:46:39;;;;;;;38.25;26.23;;;11.80;65.30;;;;;;4982675;28;20061;-44
2022/04/27 01:49:06;;;;;;;33.13;23.77;;;11.70;65.10;;;;;;4979310;28;20049;-42
2022/04/27 01:54:20;;;;;;;36.85;22.73;;;11.60;65.50;;;;;;4989571;28;20069;-43
2022/04/27 01:56:49;;;;;;;30.00;20.92;;;11.60;65.70;;;;;;4984242;28;20065;-43
2022/04/27 01:59:17;;;;;;;33.80;22.83;;;11.50;65.80;;;;;;4982438;28;20505;-43
2022/04/27 02:01:45;;;;;;;33.63;21.73;;;11.50;65.90;;;;;;4978649;28;20054;-42
2022/04/27 02:04:12;;;;;;;28.83;19.77;;;11.50;65.90;;;;;;4981404;28;20494;-46
2022/04/27 02:06:40;;;;;;;30.13;19.50;;;11.40;65.90;;;;;;4983218;28;20065;-43
2022/04/27 02:09:08;;;;;;;26.23;18.25;;;11.40;66.00;;;;;;4981350;28;20418;-42
2022/04/27 02:11:36;;;;;;;28.10;20.05;;;11.40;65.90;;;;;;4980577;28;20065;-43
2022/04/27 02:14:04;;;;;;;35.75;21.23;;;11.40;65.90;;;;;;4982295;28;20050;-44
2022/04/27 02:16:39;;;;;;;31.55;19.70;;;11.40;65.80;;;;;;4982504;28;20054;-42
2022/04/27 02:19:06;;;;;;;30.10;19.42;;;11.40;65.70;;;;;;4981931;28;20061;-42
2022/04/27 02:21:34;;;;;;;31.92;20.70;;;11.40;65.70;;;;;;4979555;28;20078;-43
2022/04/27 02:24:01;;;;;;;29.80;19.83;;;11.40;65.80;;;;;;4981790;28;20042;-45
2022/04/27 02:26:29;;;;;;;30.58;18.50;;;11.40;65.70;;;;;;4982180;28;20057;-43
2022/04/27 02:28:58;;;;;;;29.85;19.13;;;11.40;65.70;;;;;;4980400;28;20051;-43
2022/04/27 02:31:25;;;;;;;27.95;18.52;;;11.30;65.40;;;;;;4979649;28;20058;-43
2022/04/27 02:33:52;;;;;;;29.55;18.13;;;11.30;65.20;;;;;;4979677;28;20050;-43
2022/04/27 02:36:20;;;;;;;28.42;17.73;;;11.30;65.00;;;;;;4983778;28;20062;-42
2022/04/27 02:38:47;;;;;;;29.30;19.65;;;11.30;64.90;;;;;;4981599;28;20418;-42
2022/04/27 02:41:15;;;;;;;33.00;19.95;;;11.30;64.80;;;;;;4981229;28;20502;-43
2022/04/27 02:43:42;;;;;;;27.67;18.40;;;11.20;64.80;;;;;;4982361;28;20054;-43
2022/04/27 02:46:11;;;;;;;22.52;16.70;;;11.20;64.90;;;;;;4980679;28;20057;-43
2022/04/27 02:51:48;;;;;;;28.45;17.58;;;11.10;64.90;;;;;;4979895;28;20077;-43
2022/04/27 02:54:11;;;;;;;20.25;14.32;;;11.10;64.90;;;;;;4988936;28;20418;-43
2022/04/27 02:56:38;;;;;;;20.00;14.40;;;11.10;64.80;;;;;;4982949;28;20058;-43
2022/04/27 02:59:06;;;;;;;18.98;13.50;;;11.10;64.80;;;;;;4979475;28;20069;-43
2022/04/27 03:01:35;;;;;;;19.20;13.32;;;11.10;64.80;;;;;;4978456;28;20066;-43
2022/04/27 03:04:02;;;;;;;21.27;13.55;;;11.20;65.00;;;;;;4980265;28;20051;-43
2022/04/27 03:06:30;;;;;;;21.08;13.98;;;11.10;65.00;;;;;;4981682;28;20597;-44
2022/04/27 03:08:57;;;;;;;18.15;13.68;;;11.20;65.10;;;;;;4980827;28;20050;-43
2022/04/27 03:11:25;;;;;;;21.63;13.57;;;11.20;65.20;;;;;;4977772;28;20502;-44
2022/04/27 03:13:52;;;;;;;19.10;13.43;;;11.20;65.30;;;;;;4980488;28;20050;-46
2022/04/27 03:16:20;;;;;;;16.88;12.15;;;11.20;65.30;;;;;;4981457;28;20057;-45
2022/04/27 03:18:49;;;;;;;17.90;14.82;;;11.20;65.30;;;;;;4980094;28;20053;-43
2022/04/27 03:21:16;;;;;;;27.48;16.88;;;11.20;65.30;;;;;;4980268;28;20054;-45
2022/04/27 03:23:44;;;;;;;20.08;14.88;;;11.30;65.30;;;;;;4980901;28;20053;-43
2022/04/27 03:26:12;;;;;;;16.48;13.13;;;11.30;65.10;;;;;;4981289;28;20065;-44
2022/04/27 03:28:39;;;;;;;19.27;13.80;;;11.30;65.10;;;;;;4981574;28;20057;-43
2022/04/27 03:31:07;;;;;;;22.48;15.02;;;11.30;65.00;;;;;;4981630;28;20050;-43
2022/04/27 03:33:34;;;;;;;19.30;14.68;;;11.40;65.10;;;;;;4975673;28;20594;-43
2022/04/27 03:36:04;;;;;;;21.35;14.77;;;11.40;65.00;;;;;;4981933;28;20084;-43
2022/04/27 03:38:32;;;;;;;21.60;15.48;;;11.40;64.80;;;;;;4979766;28;20062;-43
2022/04/27 03:40:59;;;;;;;20.95;15.00;;;11.40;64.60;;;;;;4981969;28;20054;-43
2022/04/27 03:43:27;;;;;;;25.38;16.08;;;11.40;64.50;;;;;;4978362;28;20065;-42
2022/04/27 03:45:54;;;;;;;25.15;15.85;;;11.40;64.20;;;;;;4980832;28;20701;-44
2022/04/27 03:48:22;;;;;;;22.45;15.88;;;11.40;64.00;;;;;;4976569;28;20062;-45
2022/04/27 03:50:49;;;;;;;21.67;15.75;;;11.40;64.00;;;;;;4978867;28;20054;-43
2022/04/27 03:53:18;;;;;;;22.65;16.40;;;11.40;63.90;;;;;;4976186;28;20050;-43
2022/04/27 03:55:46;;;;;;;20.90;14.27;;;11.30;63.70;;;;;;4979437;28;20486;-43
2022/04/27 03:58:13;;;;;;;25.40;16.20;;;11.40;63.70;;;;;;4977353;28;20063;-43
2022/04/27 04:00:41;;;;;;;22.63;14.57;;;11.30;63.60;;;;;;4981792;28;20062;-43
2022/04/27 04:03:11;;;;;;;24.08;15.40;;;11.30;63.60;;;;;;4977414;28;20510;-43
2022/04/27 04:05:39;;;;;;;22.00;15.57;;;11.30;63.60;;;;;;4979430;28;20498;-43
2022/04/27 04:08:06;;;;;;;27.20;16.67;;;11.30;63.60;;;;;;4979978;28;20728;-44
2022/04/27 04:10:36;;;;;;;22.90;14.38;;;11.30;63.50;;;;;;4976499;28;20058;-43
2022/04/27 04:13:05;;;;;;;22.60;16.73;;;11.30;63.50;;;;;;4979930;28;20443;-44
2022/04/27 04:15:37;;;;;;;24.10;16.02;;;11.20;63.30;;;;;;4984564;28;20073;-48
2022/04/27 04:18:05;;;;;;;24.38;16.65;;;11.20;63.20;;;;;;4982783;28;21319;-43
2022/04/27 04:20:32;;;;;;;22.58;16.77;;;11.20;63.10;;;;;;4984521;28;20418;-44
2022/04/27 04:23:00;;;;;;;24.00;15.90;;;11.10;63.10;;;;;;4978211;28;20517;-42
2022/04/27 04:28:32;;;;;;;21.10;14.65;;;11.10;63.50;;;;;;4990279;28;20053;-44
2022/04/27 04:31:01;;;;;;;28.90;16.17;;;11.10;63.80;;;;;;4984549;28;20518;-42
2022/04/27 04:33:29;;;;;;;24.02;15.43;;;11.10;63.90;;;;;;4981314;28;20054;-42
2022/04/27 04:36:00;;;;;;;25.35;17.00;;;11.10;63.90;;;;;;4984913;28;20146;-43
2022/04/27 04:38:27;;;;;;;25.77;17.65;;;11.10;63.90;;;;;;4984504;28;20058;-44
2022/04/27 04:40:55;;;;;;;26.08;17.67;;;11.10;64.00;;;;;;4985151;28;20065;-45
2022/04/27 04:43:23;;;;;;;29.65;18.40;;;11.00;63.70;;;;;;4983405;28;20054;-43
2022/04/27 04:45:51;;;;;;;30.45;18.77;;;11.00;63.60;;;;;;4982757;28;20050;-43
2022/04/27 04:48:18;;;;;;;26.25;18.40;;;10.90;63.50;;;;;;4983072;28;20050;-43
2022/04/27 04:50:46;;;;;;;25.58;17.67;;;10.90;63.60;;;;;;4984544;28;20065;-42
2022/04/27 04:53:13;;;;;;;24.90;17.52;;;10.90;63.80;;;;;;4984371;28;20077;-45
2022/04/27 04:55:41;;;;;;;25.02;17.27;;;10.80;63.90;;;;;;4982493;28;20061;-44
2022/04/27 04:58:09;;;;;;;23.80;15.32;;;10.80;64.20;;;;;;4984572;28;20058;-43
2022/04/27 05:00:39;;;;;;;25.75;17.90;;;10.70;64.30;;;;;;4983016;28;20054;-43
2022/04/27 05:03:06;;;;;;;31.65;18.25;;;10.70;64.60;;;;;;4981646;28;20069;-43
2022/04/27 05:05:34;;;;;;;39.72;20.13;;;10.80;64.90;;;;;;4984270;28;20341;-42
2022/04/27 05:08:02;;;;;;;30.05;20.50;;;10.80;65.10;;;;;;4983107;28;20068;-43
2022/04/27 05:10:29;;;;;;;33.70;20.67;;;10.80;65.30;;;;;;4983816;28;20050;-43
2022/04/27 05:12:57;;;;;;;31.05;20.48;;;10.80;65.50;;;;;;4984359;28;20054;-45
2022/04/27 05:15:24;;;;;;;28.58;18.55;;;10.80;65.50;;;;;;4983417;28;20525;-44
2022/04/27 05:17:53;;;;;;;30.83;20.88;;;10.80;65.60;;;;;;4983032;28;20525;-43
2022/04/27 05:20:21;;;;;;;30.02;19.73;;;10.80;65.70;;;;;;4984962;28;20069;-42
2022/04/27 05:22:48;;;;;;;33.08;20.05;;;10.80;66.20;;;;;;4981990;28;20066;-44
2022/04/27 05:25:15;;;;;;;38.67;20.30;;;10.80;65.80;;;;;;4982682;28;20050;-43
2022/04/27 05:27:43;;;;;;;28.60;19.67;;;10.80;66.60;;;;;;4983095;28;20418;-42
2022/04/27 05:32:58;;;;;;;40.63;20.38;;;10.90;65.60;;;;;;4986839;28;20057;-43
2022/04/27 05:35:26;;;;;;;29.08;19.85;;;10.90;65.50;;;;;;4983808;28;20057;-45
2022/04/27 05:37:54;;;;;;;32.00;19.70;;;10.90;65.60;;;;;;4983568;28;20450;-45
2022/04/27 05:40:21;;;;;;;32.20;20.25;;;10.80;65.50;;;;;;4983457;28;20050;-45
2022/04/27 05:42:49;;;;;;;27.88;20.20;;;10.80;65.70;;;;;;4982082;28;20054;-45
2022/04/27 05:45:16;;;;;;;31.02;19.38;;;10.80;65.80;;;;;;4984501;28;20406;-48
2022/04/27 05:47:44;;;;;;;25.48;18.83;;;10.80;65.90;;;;;;4980187;28;20069;-42
2022/04/27 05:50:13;;;;;;;27.92;17.13;;;10.80;66.00;;;;;;4981517;28;20054;-44
2022/04/27 05:52:52;;;;;;;30.33;18.73;;;10.80;66.10;;;;;;4978787;28;20057;-42
2022/04/27 05:55:20;;;;;;;27.15;18.00;;;10.80;66.30;;;;;;4984519;28;20051;-42
2022/04/27 05:57:47;;;;;;;24.13;17.33;;;10.80;66.10;;;;;;4981747;28;20054;-43
2022/04/27 06:00:16;;;;;;;25.40;17.63;;;10.80;66.20;;;;;;4981083;28;20065;-44
2022/04/27 06:02:44;;;;;;;28.58;17.15;;;10.90;66.30;;;;;;4978348;28;20050;-43
2022/04/27 06:05:13;;;;;;;22.45;16.33;;;10.90;66.20;;;;;;4979159;28;20077;-43
2022/04/27 06:07:41;;;;;;;26.25;17.45;;;10.90;66.20;;;;;;4980684;28;20054;-43
2022/04/27 06:10:11;;;;;;;24.90;16.42;;;11.00;66.20;;;;;;4980560;28;20050;-42
2022/04/27 06:12:46;;;;;;;29.90;17.98;;;11.00;66.10;;;;;;4981321;28;20058;-44
2022/04/27 06:15:14;;;;;;;24.20;16.65;;;11.00;66.10;;;;;;4983666;28;20050;-43
2022/04/27 06:17:42;;;;;;;28.45;18.45;;;11.10;66.10;;;;;;4983214;28;20054;-42
2022/04/27 06:20:11;;;;;;;28.42;17.45;;;11.10;66.00;;;;;;4982263;28;20111;-43
2022/04/27 06:22:40;;;;;;;22.52;16.00;;;11.20;66.00;;;;;;4980821;28;20422;-43
2022/04/27 06:25:08;;;;;;;24.73;17.67;;;11.20;65.90;;;;;;4983186;28;20061;-42
2022/04/27 06:27:36;;;;;;;27.83;17.55;;;11.20;65.90;;;;;;4980974;28;20058;-43
2022/04/27 06:30:04;;;;;;;23.55;17.40;;;11.30;66.00;;;;;;4982749;28;20065;-43
2022/04/27 06:32:32;;;;;;;27.27;18.35;;;11.40;66.00;;;;;;4979571;28;20050;-44
2022/04/27 06:34:59;;;;;;;26.70;18.23;;;11.40;65.90;;;;;;4981370;28;20058;-43
2022/04/27 06:37:27;;;;;;;28.85;18.88;;;11.50;65.90;;;;;;4981429;28;20050;-44
2022/04/27 06:39:56;;;;;;;27.15;19.83;;;11.50;65.70;;;;;;4982943;28;20740;-46
2022/04/27 06:42:23;;;;;;;26.75;20.00;;;11.60;65.50;;;;;;4977812;28;20050;-44
2022/04/27 06:44:51;;;;;;;33.03;23.02;;;11.60;65.40;;;;;;4982773;28;20054;-42
2022/04/27 06:47:18;;;;;;;33.95;23.15;;;11.60;65.20;;;;;;4981687;28;20054;-42
2022/04/27 06:49:46;;;;;;;35.92;25.20;;;11.70;65.10;;;;;;4981914;28;20415;-43
2022/04/27 06:52:13;;;;;;;36.25;21.60;;;11.60;64.90;;;;;;4981830;28;20611;-43
2022/04/27 06:54:41;;;;;;;39.55;25.67;;;11.60;65.20;;;;;;4982484;28;20054;-43
2022/04/27 06:57:10;;;;;;;45.40;27.58;;;11.60;65.60;;;;;;4978091;28;20065;-42
2022/04/27 06:59:37;;;;;;;38.40;24.75;;;11.60;65.50;;;;;;4979405;28;20424;-43
2022/04/27 07:02:06;;;;;;;35.47;25.40;;;11.60;65.50;;;;;;4972137;28;20426;-43
2022/04/27 07:04:35;;;;;;;38.85;25.88;;;11.60;65.70;;;;;;4979900;28;20050;-46
2022/04/27 07:07:03;;;;;;;46.00;25.38;;;11.50;65.70;;;;;;4980214;28;20437;-42
2022/04/27 07:09:31;;;;;;;32.65;24.55;;;11.50;65.80;;;;;;4979163;28;20073;-44
2022/04/27 07:11:59;;;;;;;38.17;26.70;;;11.50;66.00;;;;;;4974909;28;20058;-43
2022/04/27 07:14:28;;;;;;;40.42;26.95;;;11.50;66.30;;;;;;4978475;28;20056;-44
2022/04/27 07:16:55;;;;;;;36.22;25.73;;;11.50;66.70;;;;;;4981345;28;20061;-43
2022/04/27 07:19:23;;;;;;;39.22;25.75;;;11.50;66.70;;;;;;4979124;28;20046;-43
2022/04/27 07:21:50;;;;;;;39.17;23.95;;;11.50;66.70;;;;;;4978760;28;20073;-44
2022/04/27 07:24:17;;;;;;;41.45;25.83;;;11.50;66.70;;;;;;4981008;28;20062;-43
2022/04/27 07:26:45;;;;;;;42.58;25.33;;;11.50;66.90;;;;;;4978269;28;21124;-42
2022/04/27 07:29:12;;;;;;;43.60;24.55;;;11.50;67.10;;;;;;4981791;28;20054;-43
2022/04/27 07:31:41;;;;;;;44.08;24.90;;;11.50;67.30;;;;;;4979946;28;20445;-42
2022/04/27 07:34:08;;;;;;;39.85;26.52;;;11.50;67.20;;;;;;4979050;28;20508;-43
2022/04/27 07:36:36;;;;;;;41.22;26.65;;;11.50;67.20;;;;;;4980128;28;20046;-43
2022/04/27 07:39:05;;;;;;;34.85;25.92;;;11.50;67.20;;;;;;4980458;28;20065;-43
2022/04/27 07:41:34;;;;;;;39.25;27.05;;;11.60;67.40;;;;;;4979254;28;20105;-45
2022/04/27 07:44:02;;;;;;;40.15;28.08;;;11.60;67.30;;;;;;4981469;28;20499;-43
2022/04/27 07:46:29;;;;;;;38.55;27.25;;;11.50;67.40;;;;;;4980161;28;20065;-43
2022/04/27 07:48:58;;;;;;;42.45;26.42;;;11.60;67.80;;;;;;4980389;28;20058;-45
2022/04/27 07:51:25;;;;;;;33.88;24.98;;;11.60;67.40;;;;;;4980696;28;20056;-44
2022/04/27 07:53:53;;;;;;;39.35;26.15;;;11.60;67.30;;;;;;4979580;28;20050;-43
2022/04/27 07:56:20;;;;;;;40.08;26.60;;;11.70;67.20;;;;;;4982041;28;20058;-43
2022/04/27 07:58:48;;;;;;;38.47;25.92;;;11.80;67.10;;;;;;4980714;28;20061;-43
2022/04/27 08:01:15;;;;;;;33.75;24.23;;;11.80;67.10;;;;;;4979373;28;20066;-45
2022/04/27 08:03:43;;;;;;;33.67;23.35;;;11.80;67.30;;;;;;4978058;28;20081;-45
2022/04/27 08:06:11;;;;;;;37.88;25.27;;;12.00;67.60;;;;;;4978545;28;20051;-43
2022/04/27 08:08:39;;;;;;;40.25;26.75;;;12.10;67.40;;;;;;4980812;28;20418;-43
2022/04/27 08:11:07;;;;;;;32.78;24.30;;;12.10;67.20;;;;;;4980363;28;20054;-43
2022/04/27 08:13:35;;;;;;;36.63;23.55;;;12.20;67.20;;;;;;4975708;28;20073;-43
2022/04/27 08:16:02;;;;;;;36.58;23.45;;;12.30;67.00;;;;;;4979199;28;20065;-44
2022/04/27 08:18:30;;;;;;;38.65;24.20;;;12.40;65.90;;;;;;4979204;28;20050;-42
2022/04/27 08:21:16;;;;;;;32.33;23.35;;;12.50;65.50;;;;;;4979314;28;20054;-43
2022/04/27 08:23:46;;;;;;;33.95;22.88;;;12.60;65.80;;;;;;4981970;28;20513;-43
2022/04/27 08:26:15;;;;;;;30.58;21.40;;;12.60;65.30;;;;;;4981737;28;20489;-42
2022/04/27 08:28:43;;;;;;;35.17;21.40;;;12.70;65.40;;;;;;4980985;28;20050;-43
2022/04/27 08:31:13;;;;;;;28.52;21.40;;;12.80;65.20;;;;;;4981869;28;20054;-43
2022/04/27 08:33:40;;;;;;;33.70;23.17;;;12.90;64.50;;;;;;4979783;28;20057;-44
2022/04/27 08:36:08;;;;;;;39.00;23.95;;;13.00;64.00;;;;;;4981505;28;20059;-43
2022/04/27 08:38:37;;;;;;;38.20;23.52;;;13.10;63.10;;;;;;4979881;28;20066;-44
2022/04/27 08:41:06;;;;;;;29.98;23.08;;;13.10;63.40;;;;;;4982276;28;20439;-43
2022/04/27 08:43:34;;;;;;;31.52;22.63;;;13.20;62.90;;;;;;4981547;28;20057;-43
2022/04/27 08:46:04;;;;;;;33.55;21.20;;;13.20;63.50;;;;;;4981916;28;20055;-43
2022/04/27 08:48:32;;;;;;;26.95;20.67;;;13.30;63.40;;;;;;4980361;28;20410;-43
2022/04/27 08:51:03;;;;;;;27.23;19.58;;;13.30;63.10;;;;;;4981624;28;20113;-43
2022/04/27 08:53:30;;;;;;;26.55;20.77;;;13.40;63.70;;;;;;4981361;28;20062;-43
2022/04/27 08:55:57;;;;;;;29.13;21.40;;;13.50;63.80;;;;;;4980402;28;20050;-43
2022/04/27 08:58:26;;;;;;;32.47;21.73;;;13.60;63.40;;;;;;4980901;28;20065;-46
2022/04/27 09:00:54;;;;;;;32.47;21.00;;;13.70;62.60;;;;;;4984812;28;20088;-45
2022/04/27 09:03:25;;;;;;;35.50;23.10;;;13.80;61.90;;;;;;4977208;28;20054;-43
2022/04/27 09:05:54;;;;;;;34.00;22.27;;;13.90;61.60;;;;;;4982960;28;20418;-43
2022/04/27 09:08:24;;;;;;;26.33;20.90;;;13.90;62.00;;;;;;4985343;28;20410;-43
2022/04/27 09:11:11;;;;;;;26.40;18.88;;;14.00;61.40;;;;;;4984776;28;20054;-43
2022/04/27 09:13:41;;;;;;;30.55;20.15;;;14.10;61.50;;;;;;4983951;28;20061;-43
2022/04/27 09:16:09;;;;;;;28.50;20.65;;;14.10;61.00;;;;;;4984088;28;20050;-47
2022/04/27 09:22:00;;;;;;;25.45;19.15;;;14.20;60.60;;;;;;4979761;28;20429;-43
2022/04/27 09:24:30;;;;;;;30.58;21.92;;;14.20;61.00;;;;;;4984728;28;20050;-43
2022/04/27 09:27:13;;;;;;;29.92;21.75;;;14.20;60.20;;;;;;4984583;28;20413;-43
2022/04/27 09:29:42;;;;;;;28.75;21.63;;;14.30;59.90;;;;;;4984219;28;20058;-42
2022/04/27 09:32:15;;;;;;;35.92;22.67;;;14.30;59.90;;;;;;4980047;28;20047;-43
2022/04/27 09:34:47;;;;;;;33.85;21.52;;;14.30;60.30;;;;;;4979956;28;20057;-43
2022/04/27 09:37:16;;;;;;;26.15;19.55;;;14.30;59.40;;;;;;4983584;28;20053;-43
2022/04/27 09:39:44;;;;;;;26.02;19.05;;;14.30;59.20;;;;;;4984327;28;20061;-43
2022/04/27 09:42:13;;;;;;;30.63;19.65;;;14.40;59.80;;;;;;4983034;28;20058;-44
2022/04/27 09:44:44;;;;;;;30.55;19.38;;;14.50;60.10;;;;;;4983700;28;20054;-43
2022/04/27 09:47:12;;;;;;;31.35;19.45;;;14.50;60.10;;;;;;4980090;28;20050;-43
2022/04/27 09:49:43;;;;;;;28.25;19.67;;;14.60;59.70;;;;;;4979535;28;20080;-42
2022/04/27 09:52:15;;;;;;;26.85;17.77;;;14.60;59.50;;;;;;4980016;28;20426;-43
2022/04/27 09:54:44;;;;;;;24.85;16.63;;;14.70;59.40;;;;;;4980386;28;20061;-45
2022/04/27 09:57:16;;;;;;;23.00;17.35;;;14.80;59.50;;;;;;4979529;28;20057;-43
2022/04/27 09:59:48;;;;;;;31.55;19.98;;;14.80;59.40;;;;;;4982324;28;20057;-42
2022/04/27 10:02:23;;;;;;;27.65;18.77;;;14.90;59.30;;;;;;4976987;28;20050;-43
2022/04/27 10:04:53;;;;;;;29.27;19.10;;;14.90;59.50;;;;;;4981971;28;20508;-43
2022/04/27 10:07:22;;;;;;;27.33;20.45;;;15.00;58.30;;;;;;4983180;28;20050;-44
2022/04/27 10:09:50;;;;;;;28.25;18.88;;;15.00;58.70;;;;;;4980940;28;20513;-46
2022/04/27 10:12:18;;;;;;;23.15;16.83;;;15.10;58.00;;;;;;4979591;28;20417;-46
2022/04/27 10:14:47;;;;;;;24.63;16.40;;;15.10;57.90;;;;;;4982298;28;20422;-44
2022/04/27 10:17:15;;;;;;;29.13;19.20;;;15.20;58.40;;;;;;4982266;28;20065;-42
2022/04/27 10:19:49;;;;;;;24.88;16.40;;;15.30;58.60;;;;;;4981687;28;20486;-44
2022/04/27 10:22:26;;;;;;;;;;;15.50;57.90;;;;;;4980731;28;20461;-42
2022/04/27 10:24:55;;;;;;;21.65;16.10;;;15.60;58.00;;;;;;4982554;28;19926;-42
2022/04/27 10:27:25;;;;;;;28.80;18.05;;;15.70;57.60;;;;;;4983916;28;20054;-44
2022/04/27 10:29:59;;;;;;;28.27;19.77;;;15.80;57.60;;;;;;4973960;28;20053;-43
2022/04/27 10:32:37;;;;;;;38.92;18.33;;;15.80;55.80;;;;;;4974939;28;20062;-43
2022/04/27 10:35:29;;;;;;;27.48;18.20;;;15.80;55.60;;;;;;4976989;28;20300;-43
2022/04/27 10:37:58;;;;;;;24.00;15.20;;;15.80;55.20;;;;;;4979559;28;20057;-43
2022/04/27 10:40:33;;;;;;;23.33;15.82;;;15.80;55.30;;;;;;4981918;28;20069;-43
2022/04/27 10:43:13;;;;;;;22.55;16.33;;;15.80;55.30;;;;;;4977042;28;20494;-43
2022/04/27 10:45:44;;;;;;;25.80;17.98;;;15.90;54.00;;;;;;4979541;28;20071;-44
2022/04/27 10:48:17;;;;;;;27.85;18.38;;;15.90;54.40;;;;;;4978963;28;20046;-43
2022/04/27 10:51:00;;;;;;;24.20;16.55;;;15.90;54.50;;;;;;4974477;28;20062;-43
2022/04/27 10:53:29;;;;;;;21.15;16.08;;;16.00;54.30;;;;;;4980730;28;20054;-42
2022/04/27 10:55:58;;;;;;;23.65;16.23;;;16.10;54.50;;;;;;4982578;28;20062;-45
2022/04/27 10:58:33;;;;;;;22.42;14.65;;;16.20;56.20;;;;;;4982099;28;20054;-42
2022/04/27 11:01:24;;;;;;;24.60;15.38;;;16.30;56.10;;;;;;4982223;28;20057;-42
2022/04/27 11:04:11;;;;;;;23.65;17.08;;;16.40;54.40;;;;;;4980010;28;20054;-44
2022/04/27 11:07:19;;;;;;;25.15;15.93;;;16.50;53.60;;;;;;4980301;28;20445;-42
2022/04/27 11:10:11;;;;;;;20.90;14.98;;;16.60;53.20;;;;;;4981190;28;20485;-43
2022/04/27 11:12:40;;;;;;;23.85;16.45;;;16.70;54.30;;;;;;4973895;28;20054;-43
2022/04/27 11:15:15;;;;;;;28.55;16.83;;;16.70;53.70;;;;;;4978668;28;20054;-42
2022/04/27 11:17:44;;;;;;;23.65;16.02;;;16.70;53.00;;;;;;4969481;28;20050;-43
2022/04/27 11:20:29;;;;;;;24.35;15.20;;;16.80;52.00;;;;;;4974807;28;20513;-43
2022/04/27 11:22:57;;;;;;;21.50;15.68;;;16.80;52.20;;;;;;4975901;28;20050;-42
2022/04/27 11:25:29;;;;;;;25.80;17.08;;;16.80;52.60;;;;;;4982044;28;20065;-44
2022/04/27 11:27:56;;;;;;;21.45;15.85;;;16.80;52.00;;;;;;4978449;28;20050;-42
2022/04/27 11:30:25;;;;;;;21.42;15.85;;;16.80;52.40;;;;;;4982614;28;20793;-42
2022/04/27 11:32:54;;;;;;;19.35;14.60;;;16.80;52.40;;;;;;4978732;28;20550;-45
2022/04/27 11:35:23;;;;;;;20.38;13.55;;;16.80;52.30;;;;;;4982324;28;20727;-43
2022/04/27 11:37:53;;;;;;;21.95;14.02;;;16.80;52.70;;;;;;4979587;28;20042;-42
2022/04/27 11:40:25;;;;;;;23.70;14.52;;;16.90;52.00;;;;;;4982376;28;20062;-43
2022/04/27 11:42:53;;;;;;;19.40;13.85;;;16.90;51.70;;;;;;4977382;28;20062;-44
2022/04/27 11:45:22;;;;;;;19.55;13.35;;;16.90;51.00;;;;;;4982206;28;20054;-43
2022/04/27 11:47:59;;;;;;;29.25;14.00;;;16.90;51.10;;;;;;4979838;28;20050;-43
2022/04/27 11:50:27;;;;;;;19.55;12.85;;;17.00;50.40;;;;;;4982566;28;20422;-42
2022/04/27 11:53:02;;;;;;;20.58;12.50;;;17.00;50.80;;;;;;4977731;28;20058;-43
2022/04/27 11:55:30;;;;;;;15.15;10.05;;;17.00;50.20;;;;;;4982453;28;20533;-42
2022/04/27 11:57:57;;;;;;;18.27;11.48;;;17.10;50.60;;;;;;4980146;28;20517;-42
2022/04/27 12:00:27;;;;;;;18.17;12.02;;;17.10;50.70;;;;;;4982283;28;20058;-42
2022/04/27 12:03:03;;;;;;;20.77;12.07;;;17.10;50.10;;;;;;4972679;28;20125;-45
2022/04/27 12:05:33;;;;;;;17.88;11.10;;;17.20;49.50;;;;;;4982030;28;20054;-42
2022/04/27 12:08:07;;;;;;;13.93;9.50;;;17.20;50.30;;;;;;4979487;28;20046;-44
2022/04/27 12:10:40;;;;;;;20.13;11.17;;;17.30;49.70;;;;;;4981934;28;20414;-43
2022/04/27 12:13:08;;;;;;;15.63;11.70;;;17.40;49.80;;;;;;4976025;28;20061;-43
2022/04/27 12:15:37;;;;;;;14.65;11.68;;;17.50;49.70;;;;;;4981651;28;20061;-45
2022/04/27 12:18:05;;;;;;;19.48;10.48;;;17.50;49.60;;;;;;4979512;28;20051;-43
2022/04/27 12:20:38;;;;;;;19.60;12.63;;;17.70;49.80;;;;;;4978486;28;20051;-42
2022/04/27 12:23:08;;;;;;;18.77;11.57;;;17.80;49.30;;;;;;4979276;28;20055;-43
2022/04/27 12:25:38;;;;;;;22.17;13.32;;;17.90;48.70;;;;;;4981743;28;20061;-43
2022/04/27 12:28:07;;;;;;;18.65;12.65;;;17.90;48.30;;;;;;4976227;28;20051;-42
2022/04/27 12:30:49;;;;;;;17.98;12.18;;;18.00;47.90;;;;;;4979605;28;20423;-45
2022/04/27 12:33:18;;;;;;;18.38;11.98;;;18.00;48.60;;;;;;4977570;28;20513;-42
2022/04/27 12:38:37;;;;;;;20.55;12.45;;;18.10;47.60;;;;;;4985635;28;20410;-44
2022/04/27 12:41:06;;;;;;;20.48;11.98;;;18.10;46.90;;;;;;4984495;28;20058;-42
2022/04/27 12:43:34;;;;;;;14.70;9.57;;;18.10;46.70;;;;;;4983026;28;20058;-43
2022/04/27 12:46:10;;;;;;;11.05;8.35;;;18.10;47.40;;;;;;4985365;28;20084;-44
2022/04/27 12:48:38;;;;;;;14.05;8.60;;;18.20;48.10;;;;;;4984492;28;20050;-42
2022/04/27 12:51:09;;;;;;;10.30;8.18;;;18.20;48.00;;;;;;4983655;28;20062;-42
2022/04/27 12:53:37;;;;;;;11.85;8.20;;;18.30;48.30;;;;;;4984004;28;20061;-43
2022/04/27 12:56:19;;;;;;;13.48;8.48;;;18.40;48.20;;;;;;4985030;28;20417;-43